createdAt,value
2018-05-17T00:00:04.231Z,0
2018-05-17T00:01:14.324Z,0
2018-05-17T00:02:24.159Z,0
2018-05-17T00:03:34.264Z,0
2018-05-17T00:04:44.074Z,0
2018-05-17T00:05:54.157Z,0
2018-05-17T00:07:04.246Z,0
2018-05-17T00:08:14.060Z,0
2018-05-17T00:09:23.879Z,0
2018-05-17T00:10:34.003Z,0
2018-05-17T00:11:44.094Z,0
2018-05-17T00:12:54.162Z,0
2018-05-17T00:14:04.243Z,0
2018-05-17T00:15:14.337Z,0
2018-05-17T00:16:24.419Z,0
2018-05-17T00:17:34.497Z,0
2018-05-17T00:18:44.579Z,0
2018-05-17T00:19:54.394Z,0
2018-05-17T00:21:04.287Z,0
2018-05-17T00:22:14.406Z,0
2018-05-17T00:23:24.500Z,0
2018-05-17T00:24:34.612Z,0
2018-05-17T00:25:44.695Z,0
2018-05-17T00:26:54.778Z,0
2018-05-17T00:28:04.843Z,0
2018-05-17T00:29:14.921Z,0
2018-05-17T00:30:24.976Z,0
2018-05-17T00:31:35.061Z,0
2018-05-17T00:32:45.165Z,0
2018-05-17T00:33:55.294Z,0
2018-05-17T00:35:05.374Z,0
2018-05-17T00:36:15.445Z,0
2018-05-17T00:37:25.512Z,0
2018-05-17T00:38:35.326Z,0
2018-05-17T00:39:45.477Z,0
2018-05-17T00:40:55.540Z,0
2018-05-17T00:42:05.617Z,0
2018-05-17T00:43:15.707Z,0
2018-05-17T00:44:25.524Z,0
2018-05-17T00:45:35.642Z,0
2018-05-17T00:46:45.464Z,0
2018-05-17T00:47:55.549Z,0
2018-05-17T00:49:05.629Z,0
2018-05-17T00:50:15.713Z,0
2018-05-17T00:51:25.778Z,0
2018-05-17T00:52:36.041Z,0
2018-05-17T00:53:46.113Z,0
2018-05-17T00:54:55.929Z,0
2018-05-17T00:56:05.754Z,0
2018-05-17T00:57:15.820Z,0
2018-05-17T00:58:25.633Z,0
2018-05-17T00:59:35.474Z,0
2018-05-17T01:00:45.562Z,0
2018-05-17T01:01:55.371Z,0
2018-05-17T01:03:05.539Z,0
2018-05-17T01:04:15.606Z,0
2018-05-17T01:05:25.694Z,0
2018-05-17T01:06:35.786Z,0
2018-05-17T01:07:45.856Z,0
2018-05-17T01:08:55.720Z,0
2018-05-17T01:10:05.808Z,0
2018-05-17T01:11:15.598Z,0
2018-05-17T01:12:25.404Z,0
2018-05-17T01:13:35.588Z,0
2018-05-17T01:14:45.681Z,0
2018-05-17T01:15:55.765Z,0
2018-05-17T01:17:05.840Z,0
2018-05-17T01:18:15.921Z,0
2018-05-17T01:19:26.099Z,0
2018-05-17T01:20:35.909Z,0
2018-05-17T01:21:45.967Z,0
2018-05-17T01:22:56.049Z,0
2018-05-17T01:24:06.135Z,0
2018-05-17T01:25:16.216Z,0
2018-05-17T01:26:26.399Z,0
2018-05-17T01:27:36.467Z,0
2018-05-17T01:28:46.543Z,0
2018-05-17T01:29:56.620Z,0
2018-05-17T01:31:06.436Z,0
2018-05-17T01:32:16.496Z,0
2018-05-17T01:33:26.573Z,0
2018-05-17T01:34:36.661Z,0
2018-05-17T01:35:46.482Z,0
2018-05-17T01:36:56.561Z,0
2018-05-17T01:38:06.690Z,0
2018-05-17T01:39:16.759Z,0
2018-05-17T01:40:26.829Z,0
2018-05-17T01:41:36.937Z,0
2018-05-17T01:42:46.769Z,0
2018-05-17T01:43:56.891Z,0
2018-05-17T01:45:06.968Z,0
2018-05-17T01:46:16.776Z,0
2018-05-17T01:47:26.879Z,0
2018-05-17T01:48:36.649Z,0
2018-05-17T01:49:46.820Z,0
2018-05-17T01:50:56.907Z,0
2018-05-17T01:52:06.981Z,0
2018-05-17T01:53:17.054Z,0
2018-05-17T01:54:27.130Z,0
2018-05-17T01:55:36.932Z,0
2018-05-17T01:56:46.742Z,0
2018-05-17T01:57:56.568Z,0
2018-05-17T01:59:06.382Z,0
2018-05-17T02:00:16.590Z,0
2018-05-17T02:01:26.687Z,0
2018-05-17T02:02:36.779Z,0
2018-05-17T02:03:46.605Z,0
2018-05-17T02:04:56.695Z,0
2018-05-17T02:06:06.878Z,0
2018-05-17T02:07:16.957Z,0
2018-05-17T02:08:27.044Z,0
2018-05-17T02:09:37.165Z,0
2018-05-17T02:10:47.254Z,0
2018-05-17T02:11:57.087Z,0
2018-05-17T02:13:07.187Z,0
2018-05-17T02:14:17.005Z,0
2018-05-17T02:15:27.083Z,0
2018-05-17T02:16:37.165Z,0
2018-05-17T02:17:47.302Z,0
2018-05-17T02:18:57.119Z,0
2018-05-17T02:20:07.191Z,0
2018-05-17T02:21:16.985Z,0
2018-05-17T02:22:27.049Z,0
2018-05-17T02:23:36.867Z,0
2018-05-17T02:24:46.687Z,0
2018-05-17T02:25:56.778Z,0
2018-05-17T02:27:06.841Z,0
2018-05-17T02:28:16.919Z,0
2018-05-17T02:29:26.994Z,0
2018-05-17T02:30:37.097Z,0
2018-05-17T02:31:47.169Z,0
2018-05-17T02:32:57.269Z,0
2018-05-17T02:34:07.076Z,0
2018-05-17T02:35:17.169Z,0
2018-05-17T02:36:26.971Z,0
2018-05-17T02:37:37.044Z,0
2018-05-17T02:38:47.124Z,0
2018-05-17T02:39:57.212Z,0
2018-05-17T02:41:07.305Z,0
2018-05-17T02:42:17.434Z,0
2018-05-17T02:43:27.516Z,0
2018-05-17T02:44:37.340Z,0
2018-05-17T02:45:47.409Z,0
2018-05-17T02:46:57.484Z,0
2018-05-17T02:48:07.626Z,0
2018-05-17T02:49:18.164Z,0
2018-05-17T02:50:27.803Z,0
2018-05-17T02:51:37.890Z,0
2018-05-17T02:52:47.700Z,0
2018-05-17T02:53:57.792Z,0
2018-05-17T02:55:07.869Z,0
2018-05-17T02:56:17.963Z,0
2018-05-17T02:57:27.512Z,0
2018-05-17T02:58:37.058Z,0
2018-05-17T02:59:46.866Z,0
2018-05-17T03:00:56.421Z,0
2018-05-17T03:02:06.501Z,0
2018-05-17T03:34:34.877Z,20
2018-05-17T03:35:44.941Z,20
2018-05-17T03:36:54.749Z,20
2018-05-17T03:38:04.556Z,25
2018-05-17T03:39:14.617Z,25
2018-05-17T03:40:24.694Z,25
2018-05-17T03:41:34.764Z,25
2018-05-17T03:42:44.829Z,25
2018-05-17T03:43:54.619Z,25
2018-05-17T03:45:04.682Z,30
2018-05-17T03:46:14.812Z,30
2018-05-17T03:47:24.891Z,30
2018-05-17T03:48:34.960Z,30
2018-05-17T03:49:45.060Z,30
2018-05-17T03:50:55.136Z,30
2018-05-17T03:52:05.287Z,30
2018-05-17T03:53:15.364Z,35
2018-05-17T03:54:25.443Z,35
2018-05-17T03:55:35.507Z,35
2018-05-17T03:56:45.605Z,40
2018-05-17T03:57:55.678Z,40
2018-05-17T03:59:05.776Z,40
2018-05-17T04:00:15.835Z,40
2018-05-17T04:01:26.014Z,40
2018-05-17T04:02:36.157Z,35
2018-05-17T04:03:46.308Z,35
2018-05-17T04:04:56.381Z,40
2018-05-17T04:06:06.466Z,45
2018-05-17T04:07:16.561Z,50
2018-05-17T04:08:26.397Z,55
2018-05-17T04:09:36.509Z,60
2018-05-17T04:10:46.588Z,60
2018-05-17T04:11:56.410Z,60
2018-05-17T04:13:06.546Z,65
2018-05-17T04:14:16.615Z,65
2018-05-17T04:15:26.736Z,75
2018-05-17T04:16:36.545Z,85
2018-05-17T04:17:46.622Z,90
2018-05-17T04:18:56.456Z,90
2018-05-17T04:20:06.541Z,95
2018-05-17T04:21:16.413Z,105
2018-05-17T04:22:26.510Z,115
2018-05-17T04:23:36.603Z,115
2018-05-17T04:24:46.697Z,125
2018-05-17T04:25:56.785Z,130
2018-05-17T04:27:06.625Z,130
2018-05-17T04:28:16.708Z,110
2018-05-17T04:29:27.041Z,110
2018-05-17T04:30:37.120Z,125
2018-05-17T04:31:47.274Z,215
2018-05-17T04:32:57.343Z,215
2018-05-17T04:34:07.153Z,230
2018-05-17T04:35:17.247Z,225
2018-05-17T04:36:27.340Z,195
2018-05-17T04:37:37.422Z,190
2018-05-17T04:38:47.515Z,170
2018-05-17T04:39:57.328Z,185
2018-05-17T04:41:07.425Z,175
2018-05-17T04:42:17.515Z,205
2018-05-17T04:43:27.336Z,205
2018-05-17T04:44:37.458Z,185
2018-05-17T04:45:47.538Z,345
2018-05-17T04:46:57.354Z,300
2018-05-17T04:48:07.441Z,225
2018-05-17T04:49:17.290Z,310
2018-05-17T04:50:27.385Z,240
2018-05-17T04:51:37.466Z,300
2018-05-17T04:52:47.561Z,300
2018-05-17T04:53:57.404Z,285
2018-05-17T04:55:07.490Z,290
2018-05-17T04:56:17.574Z,275
2018-05-17T04:57:27.389Z,260
2018-05-17T04:58:37.459Z,140
2018-05-17T04:59:47.288Z,215
2018-05-17T05:00:57.134Z,200
2018-05-17T05:02:07.226Z,110
2018-05-17T05:03:17.047Z,95
2018-05-17T05:04:26.864Z,95
2018-05-17T05:05:36.943Z,95
2018-05-17T05:06:46.771Z,100
2018-05-17T05:07:56.894Z,110
2018-05-17T05:09:07.056Z,125
2018-05-17T05:10:17.138Z,145
2018-05-17T05:11:27.207Z,135
2018-05-17T05:12:37.274Z,125
2018-05-17T05:13:47.417Z,125
2018-05-17T05:14:57.244Z,130
2018-05-17T05:16:07.335Z,185
2018-05-17T05:17:17.432Z,140
2018-05-17T05:18:27.514Z,145
2018-05-17T05:19:37.388Z,160
2018-05-17T05:20:47.499Z,185
2018-05-17T05:21:57.566Z,235
2018-05-17T05:23:07.649Z,280
2018-05-17T05:24:17.746Z,255
2018-05-17T05:25:28.144Z,235
2018-05-17T05:26:38.255Z,165
2018-05-17T05:27:48.085Z,150
2018-05-17T05:28:58.239Z,155
2018-05-17T05:30:07.799Z,165
2018-05-17T05:31:17.414Z,150
2018-05-17T05:32:27.484Z,130
2018-05-17T05:33:37.553Z,120
2018-05-17T05:34:47.617Z,110
2018-05-17T05:35:57.682Z,110
2018-05-17T05:37:07.756Z,105
2018-05-17T05:38:17.565Z,105
2018-05-17T05:39:27.389Z,115
2018-05-17T05:40:37.475Z,120
2018-05-17T05:41:47.547Z,130
2018-05-17T05:42:57.652Z,135
2018-05-17T05:44:07.740Z,145
2018-05-17T05:45:17.818Z,155
2018-05-17T05:46:27.627Z,165
2018-05-17T05:47:37.185Z,175
2018-05-17T05:48:47.315Z,165
2018-05-17T05:49:57.372Z,180
2018-05-17T05:51:07.455Z,165
2018-05-17T05:52:17.300Z,160
2018-05-17T05:53:27.397Z,150
2018-05-17T05:54:36.998Z,140
2018-05-17T05:55:47.079Z,140
2018-05-17T05:56:56.919Z,130
2018-05-17T05:58:07.010Z,130
2018-05-17T05:59:17.124Z,135
2018-05-17T06:00:27.256Z,145
2018-05-17T06:01:36.823Z,155
2018-05-17T06:02:46.657Z,160
2018-05-17T06:03:56.477Z,165
2018-05-17T06:05:06.308Z,165
2018-05-17T06:06:16.443Z,175
2018-05-17T06:07:26.533Z,180
2018-05-17T06:08:36.379Z,175
2018-05-17T06:09:46.463Z,165
2018-05-17T06:10:56.546Z,165
2018-05-17T06:12:06.658Z,180
2018-05-17T06:13:16.490Z,200
2018-05-17T06:14:26.578Z,205
2018-05-17T06:15:36.645Z,225
2018-05-17T06:16:46.446Z,235
2018-05-17T06:17:56.512Z,240
2018-05-17T06:19:06.597Z,235
2018-05-17T06:20:16.686Z,265
2018-05-17T06:21:26.782Z,235
2018-05-17T06:22:36.619Z,215
2018-05-17T06:23:46.823Z,220
2018-05-17T06:24:56.923Z,230
2018-05-17T06:26:07.017Z,235
2018-05-17T06:27:17.112Z,255
2018-05-17T06:28:27.218Z,245
2018-05-17T06:29:37.318Z,240
2018-05-17T06:30:47.386Z,230
2018-05-17T06:31:57.199Z,235
2018-05-17T06:33:07.260Z,220
2018-05-17T06:34:17.332Z,220
2018-05-17T06:35:27.408Z,205
2018-05-17T06:36:37.480Z,200
2018-05-17T06:37:47.828Z,200
2018-05-17T06:38:57.914Z,195
2018-05-17T06:40:07.984Z,195
2018-05-17T06:41:17.072Z,190
2018-05-17T06:42:27.168Z,190
2018-05-17T06:43:37.249Z,195
2018-05-17T06:44:47.068Z,195
2018-05-17T06:45:56.885Z,190
2018-05-17T06:47:06.982Z,185
2018-05-17T06:48:16.814Z,170
2018-05-17T06:49:26.628Z,165
2018-05-17T06:50:36.692Z,155
2018-05-17T06:51:46.790Z,150
2018-05-17T06:52:56.884Z,150
2018-05-17T06:54:06.955Z,150
2018-05-17T06:55:17.036Z,150
2018-05-17T06:56:27.106Z,160
2018-05-17T06:57:37.196Z,170
2018-05-17T06:58:47.279Z,180
2018-05-17T06:59:57.346Z,190
2018-05-17T07:01:07.169Z,195
2018-05-17T07:02:17.281Z,190
2018-05-17T07:03:27.470Z,185
2018-05-17T07:04:37.561Z,185
2018-05-17T07:05:47.116Z,185
2018-05-17T07:06:57.190Z,185
2018-05-17T07:08:07.275Z,180
2018-05-17T07:09:16.831Z,175
2018-05-17T07:10:27.027Z,170
2018-05-17T07:11:37.119Z,170
2018-05-17T07:12:47.194Z,170
2018-05-17T07:13:57.002Z,160
2018-05-17T07:15:07.090Z,160
2018-05-17T07:16:17.189Z,155
2018-05-17T07:17:27.028Z,155
2018-05-17T07:18:39.159Z,155
2018-05-17T07:19:49.258Z,155
2018-05-17T07:20:59.316Z,155
2018-05-17T07:22:08.905Z,160
2018-05-17T07:23:19.004Z,165
2018-05-17T07:24:29.074Z,165
2018-05-17T07:25:38.881Z,170
2018-05-17T07:26:48.982Z,170
2018-05-17T07:27:59.122Z,175
2018-05-17T07:29:09.200Z,175
2018-05-17T07:30:18.757Z,180
2018-05-17T07:31:29.202Z,190
2018-05-17T07:32:39.363Z,195
2018-05-17T07:33:48.911Z,205
2018-05-17T07:34:58.723Z,200
2018-05-17T07:36:08.801Z,205
2018-05-17T07:37:18.897Z,200
2018-05-17T07:38:28.974Z,195
2018-05-17T07:39:38.837Z,185
2018-05-17T07:40:48.656Z,180
2018-05-17T07:41:58.765Z,170
2018-05-17T07:43:08.330Z,165
2018-05-17T07:44:18.413Z,160
2018-05-17T07:45:28.255Z,155
2018-05-17T07:46:38.117Z,150
2018-05-17T07:47:48.201Z,145
2018-05-17T07:48:58.033Z,140
2018-05-17T07:50:07.862Z,140
2018-05-17T07:51:17.691Z,140
2018-05-17T07:52:27.759Z,140
2018-05-17T07:53:37.855Z,145
2018-05-17T07:54:47.938Z,145
2018-05-17T07:55:58.006Z,145
2018-05-17T07:57:08.141Z,140
2018-05-17T07:58:18.242Z,140
2018-05-17T07:59:28.319Z,140
2018-05-17T08:00:38.825Z,135
2018-05-17T08:01:49.139Z,135
2018-05-17T08:02:58.936Z,140
2018-05-17T08:04:09.106Z,140
2018-05-17T08:05:18.943Z,140
2018-05-17T08:06:29.026Z,140
2018-05-17T08:07:39.112Z,140
2018-05-17T08:08:48.942Z,140
2018-05-17T08:09:59.033Z,145
2018-05-17T08:11:09.125Z,135
2018-05-17T08:12:19.221Z,140
2018-05-17T08:13:29.294Z,140
2018-05-17T08:14:39.376Z,145
2018-05-17T08:15:49.484Z,145
2018-05-17T08:16:59.311Z,150
2018-05-17T08:18:09.322Z,155
2018-05-17T08:19:19.443Z,155
2018-05-17T08:20:29.317Z,160
2018-05-17T08:21:39.130Z,165
2018-05-17T08:22:49.200Z,170
2018-05-17T08:23:59.308Z,170
2018-05-17T08:25:09.422Z,170
2018-05-17T08:26:19.294Z,170
2018-05-17T08:27:29.376Z,165
2018-05-17T08:28:39.469Z,165
2018-05-17T08:29:49.545Z,165
2018-05-17T08:30:59.955Z,170
2018-05-17T08:32:12.459Z,175
2018-05-17T08:33:22.905Z,180
2018-05-17T08:34:32.994Z,190
2018-05-17T08:35:42.852Z,200
2018-05-17T08:36:53.040Z,205
2018-05-17T08:38:03.182Z,215
2018-05-17T08:39:13.305Z,215
2018-05-17T08:40:23.155Z,225
2018-05-17T08:41:33.251Z,240
2018-05-17T08:42:43.340Z,245
2018-05-17T08:43:53.441Z,245
2018-05-17T08:45:03.263Z,245
2018-05-17T08:46:13.372Z,245
2018-05-17T08:47:23.189Z,255
2018-05-17T08:48:33.305Z,260
2018-05-17T08:49:43.219Z,265
2018-05-17T08:50:53.307Z,265
2018-05-17T08:52:03.404Z,265
2018-05-17T08:53:13.228Z,265
2018-05-17T08:54:23.263Z,265
2018-05-17T08:55:33.418Z,265
2018-05-17T08:56:43.550Z,265
2018-05-17T08:57:53.124Z,265
2018-05-17T08:59:02.938Z,260
2018-05-17T09:00:12.764Z,255
2018-05-17T09:01:22.837Z,255
2018-05-17T09:02:32.919Z,240
2018-05-17T09:03:42.747Z,235
2018-05-17T09:04:52.561Z,220
2018-05-17T09:06:02.675Z,210
2018-05-17T09:07:12.768Z,210
2018-05-17T09:08:22.867Z,200
2018-05-17T09:09:32.945Z,195
2018-05-17T09:10:43.057Z,185
2018-05-17T09:11:53.199Z,185
2018-05-17T09:13:03.056Z,190
2018-05-17T09:14:12.979Z,195
2018-05-17T09:15:23.089Z,205
2018-05-17T09:16:33.189Z,210
2018-05-17T09:17:43.263Z,215
2018-05-17T09:18:53.401Z,215
2018-05-17T09:20:03.632Z,215
2018-05-17T09:21:13.733Z,220
2018-05-17T09:22:23.810Z,220
2018-05-17T09:23:33.891Z,215
2018-05-17T09:24:43.989Z,220
2018-05-17T09:25:54.069Z,210
2018-05-17T09:27:03.982Z,210
2018-05-17T09:28:13.805Z,205
2018-05-17T09:29:23.773Z,200
2018-05-17T09:30:33.872Z,195
2018-05-17T09:31:43.712Z,190
2018-05-17T09:32:53.532Z,190
2018-05-17T09:34:03.372Z,180
2018-05-17T09:35:13.453Z,180
2018-05-17T09:36:23.556Z,180
2018-05-17T09:37:33.671Z,180
2018-05-17T09:38:43.749Z,185
2018-05-17T09:39:53.840Z,185
2018-05-17T09:41:03.462Z,185
2018-05-17T09:42:13.366Z,185
2018-05-17T09:43:23.460Z,185
2018-05-17T09:44:33.557Z,185
2018-05-17T09:45:43.663Z,180
2018-05-17T09:46:53.756Z,180
2018-05-17T09:48:03.885Z,180
2018-05-17T09:49:13.953Z,170
2018-05-17T09:50:24.056Z,165
2018-05-17T09:51:33.881Z,160
2018-05-17T09:52:44.020Z,155
2018-05-17T09:53:54.141Z,150
2018-05-17T09:55:04.185Z,145
2018-05-17T09:56:14.373Z,150
2018-05-17T09:57:24.462Z,150
2018-05-17T09:58:34.580Z,145
2018-05-17T09:59:44.784Z,145
2018-05-17T10:00:54.886Z,145
2018-05-17T10:02:04.999Z,145
2018-05-17T10:03:14.585Z,150
2018-05-17T10:04:24.692Z,150
2018-05-17T10:05:34.788Z,150
2018-05-17T10:06:44.879Z,150
2018-05-17T10:07:54.726Z,155
2018-05-17T10:09:05.117Z,160
2018-05-17T10:10:14.949Z,165
2018-05-17T10:11:25.030Z,170
2018-05-17T10:12:35.118Z,175
2018-05-17T10:13:45.229Z,185
2018-05-17T10:14:55.171Z,185
2018-05-17T10:16:05.263Z,190
2018-05-17T10:17:15.094Z,190
2018-05-17T10:18:25.182Z,195
2018-05-17T10:19:35.001Z,200
2018-05-17T10:20:45.095Z,205
2018-05-17T10:21:55.085Z,205
2018-05-17T10:23:05.544Z,210
2018-05-17T10:24:15.643Z,210
2018-05-17T10:25:25.462Z,215
2018-05-17T10:26:35.610Z,215
2018-05-17T10:27:45.703Z,215
2018-05-17T10:28:55.580Z,215
2018-05-17T10:30:05.689Z,215
2018-05-17T10:31:15.776Z,215
2018-05-17T10:32:25.887Z,220
2018-05-17T10:33:35.966Z,205
2018-05-17T10:34:46.078Z,190
2018-05-17T10:35:56.176Z,175
2018-05-17T10:37:06.276Z,155
2018-05-17T10:38:16.360Z,145
2018-05-17T10:39:26.431Z,150
2018-05-17T10:40:36.580Z,155
2018-05-17T10:41:46.699Z,165
2018-05-17T10:42:56.814Z,175
2018-05-17T10:44:06.911Z,185
2018-05-17T10:45:17.010Z,190
2018-05-17T10:46:27.255Z,195
2018-05-17T10:47:37.369Z,190
2018-05-17T10:48:47.518Z,195
2018-05-17T10:49:57.359Z,195
2018-05-17T10:51:07.464Z,195
2018-05-17T10:52:17.299Z,195
2018-05-17T10:53:27.399Z,190
2018-05-17T10:54:38.012Z,195
2018-05-17T10:55:48.123Z,200
2018-05-17T10:56:58.682Z,195
2018-05-17T10:58:08.312Z,185
2018-05-17T10:59:18.404Z,170
2018-05-17T11:00:28.532Z,145
2018-05-17T11:01:38.606Z,135
2018-05-17T11:02:49.004Z,125
2018-05-17T11:03:59.163Z,115
2018-05-17T11:05:09.273Z,100
2018-05-17T11:06:19.118Z,95
2018-05-17T11:07:29.238Z,105
2018-05-17T11:08:39.352Z,120
2018-05-17T11:09:49.502Z,125
2018-05-17T11:10:59.329Z,135
2018-05-17T11:12:09.358Z,150
2018-05-17T11:13:19.484Z,155
2018-05-17T11:14:29.581Z,160
2018-05-17T11:15:39.665Z,170
2018-05-17T11:16:48.948Z,170
2018-05-17T11:17:58.782Z,170
2018-05-17T11:19:08.872Z,175
2018-05-17T11:20:18.949Z,170
2018-05-17T11:21:28.835Z,170
2018-05-17T11:22:38.650Z,160
2018-05-17T11:23:48.747Z,160
2018-05-17T11:24:58.860Z,160
2018-05-17T11:26:09.107Z,160
2018-05-17T11:27:18.945Z,160
2018-05-17T11:28:29.026Z,155
2018-05-17T11:29:39.114Z,160
2018-05-17T11:30:49.219Z,160
2018-05-17T11:31:59.301Z,160
2018-05-17T11:33:09.379Z,160
2018-05-17T11:34:19.048Z,160
2018-05-17T11:35:29.142Z,160
2018-05-17T11:36:39.232Z,160
2018-05-17T11:37:49.341Z,160
2018-05-17T11:38:59.222Z,160
2018-05-17T11:40:09.320Z,155
2018-05-17T11:41:19.386Z,155
2018-05-17T11:42:29.490Z,155
2018-05-17T11:43:39.298Z,155
2018-05-17T11:44:49.390Z,155
2018-05-17T11:45:59.483Z,160
2018-05-17T11:47:09.579Z,160
2018-05-17T11:48:19.483Z,160
2018-05-17T11:49:29.586Z,165
2018-05-17T11:50:39.928Z,170
2018-05-17T11:51:49.737Z,170
2018-05-17T11:52:59.829Z,170
2018-05-17T11:54:09.673Z,175
2018-05-17T11:55:19.506Z,170
2018-05-17T11:56:29.577Z,170
2018-05-17T11:57:39.413Z,170
2018-05-17T11:58:49.496Z,170
2018-05-17T11:59:59.618Z,175
2018-05-17T12:01:09.465Z,180
2018-05-17T12:02:19.557Z,180
2018-05-17T12:03:29.652Z,180
2018-05-17T12:04:39.575Z,185
2018-05-17T12:05:49.666Z,190
2018-05-17T12:06:59.766Z,195
2018-05-17T12:08:09.895Z,200
2018-05-17T12:09:19.985Z,200
2018-05-17T12:10:30.076Z,205
2018-05-17T12:11:40.183Z,205
2018-05-17T12:12:50.017Z,205
2018-05-17T12:13:59.606Z,200
2018-05-17T12:15:09.708Z,195
2018-05-17T12:16:19.531Z,185
2018-05-17T12:17:29.646Z,180
2018-05-17T12:18:39.728Z,170
2018-05-17T12:19:49.611Z,165
2018-05-17T12:20:59.429Z,160
2018-05-17T12:22:09.529Z,165
2018-05-17T12:23:19.666Z,170
2018-05-17T12:24:29.852Z,170
2018-05-17T12:25:40.175Z,170
2018-05-17T12:26:50.020Z,165
2018-05-17T12:28:00.105Z,165
2018-05-17T12:29:09.931Z,170
2018-05-17T12:30:20.034Z,185
2018-05-17T12:31:29.904Z,200
2018-05-17T12:32:40.308Z,220
2018-05-17T12:33:50.416Z,225
2018-05-17T12:35:00.496Z,225
2018-05-17T12:36:10.323Z,235
2018-05-17T12:37:20.700Z,235
2018-05-17T12:38:30.525Z,245
2018-05-17T12:39:40.616Z,255
2018-05-17T12:40:50.678Z,260
2018-05-17T12:42:00.509Z,265
2018-05-17T12:43:10.661Z,280
2018-05-17T12:44:20.499Z,275
2018-05-17T12:45:30.583Z,275
2018-05-17T12:46:40.694Z,275
2018-05-17T12:47:50.792Z,270
2018-05-17T12:49:00.927Z,270
2018-05-17T12:50:11.041Z,275
2018-05-17T12:51:21.143Z,285
2018-05-17T12:52:30.979Z,285
2018-05-17T12:53:41.087Z,280
2018-05-17T12:54:50.964Z,270
2018-05-17T12:56:01.071Z,260
2018-05-17T12:57:11.167Z,250
2018-05-17T12:58:20.725Z,245
2018-05-17T12:59:30.534Z,235
2018-05-17T13:00:41.029Z,230
2018-05-17T13:01:51.106Z,225
2018-05-17T13:03:01.195Z,230
2018-05-17T13:04:11.299Z,240
2018-05-17T13:05:21.401Z,255
2018-05-17T13:06:31.488Z,265
2018-05-17T13:07:41.581Z,280
2018-05-17T13:08:51.683Z,300
2018-05-17T13:10:01.762Z,315
2018-05-17T13:11:11.885Z,310
2018-05-17T13:12:22.009Z,305
2018-05-17T13:13:32.111Z,305
2018-05-17T13:14:41.969Z,315
2018-05-17T13:15:52.063Z,315
2018-05-17T13:17:02.151Z,320
2018-05-17T13:18:11.963Z,305
2018-05-17T13:19:22.060Z,280
2018-05-17T13:20:31.903Z,265
2018-05-17T13:21:41.736Z,245
2018-05-17T13:22:51.815Z,230
2018-05-17T13:24:01.723Z,215
2018-05-17T13:25:11.841Z,210
2018-05-17T13:26:21.685Z,205
2018-05-17T13:27:31.768Z,195
2018-05-17T13:28:41.650Z,185
2018-05-17T13:29:51.746Z,170
2018-05-17T13:31:01.849Z,170
2018-05-17T13:32:12.053Z,165
2018-05-17T13:33:22.160Z,160
2018-05-17T13:34:32.253Z,155
2018-05-17T13:35:42.403Z,145
2018-05-17T13:36:52.545Z,140
2018-05-17T13:38:02.659Z,140
2018-05-17T13:39:12.747Z,135
2018-05-17T13:40:22.851Z,135
2018-05-17T13:41:32.712Z,130
2018-05-17T13:42:42.815Z,130
2018-05-17T13:43:52.658Z,130
2018-05-17T13:45:02.473Z,130
2018-05-17T13:46:12.329Z,120
2018-05-17T13:47:22.157Z,125
2018-05-17T13:48:31.988Z,130
2018-05-17T13:49:41.824Z,125
2018-05-17T13:50:51.907Z,125
2018-05-17T13:52:01.976Z,130
2018-05-17T13:53:11.818Z,130
2018-05-17T13:54:21.635Z,135
2018-05-17T13:55:31.896Z,130
2018-05-17T13:56:41.981Z,130
2018-05-17T13:57:52.095Z,130
2018-05-17T13:59:02.000Z,130
2018-05-17T14:00:11.553Z,130
2018-05-17T14:01:21.371Z,125
2018-05-17T14:02:32.270Z,125
2018-05-17T14:03:42.403Z,120
2018-05-17T14:04:52.497Z,120
2018-05-17T14:06:02.346Z,125
2018-05-17T14:07:12.192Z,125
2018-05-17T14:08:22.023Z,130
2018-05-17T14:09:32.145Z,130
2018-05-17T14:10:42.060Z,135
2018-05-17T14:11:51.927Z,130
2018-05-17T14:13:02.129Z,135
2018-05-17T14:14:12.190Z,135
2018-05-17T14:15:22.569Z,140
2018-05-17T14:16:32.766Z,140
2018-05-17T14:17:42.857Z,140
2018-05-17T14:18:52.946Z,150
2018-05-17T14:20:02.767Z,150
2018-05-17T14:21:12.613Z,160
2018-05-17T14:22:22.453Z,165
2018-05-17T14:23:32.557Z,170
2018-05-17T14:24:42.417Z,175
2018-05-17T14:25:52.552Z,175
2018-05-17T14:27:02.665Z,180
2018-05-17T14:28:12.789Z,185
2018-05-17T14:29:22.902Z,195
2018-05-17T14:30:32.984Z,200
2018-05-17T14:31:43.309Z,210
2018-05-17T14:32:53.418Z,215
2018-05-17T14:34:03.248Z,220
2018-05-17T14:35:13.105Z,220
2018-05-17T14:36:23.217Z,225
2018-05-17T14:37:33.304Z,220
2018-05-17T14:38:42.946Z,220
2018-05-17T14:39:53.063Z,215
2018-05-17T14:41:02.908Z,215
2018-05-17T14:42:13.023Z,210
2018-05-17T14:43:23.117Z,205
2018-05-17T14:44:33.253Z,205
2018-05-17T14:45:43.339Z,215
2018-05-17T14:46:53.181Z,210
2018-05-17T14:48:03.023Z,210
2018-05-17T14:49:13.120Z,210
2018-05-17T14:50:23.245Z,210
2018-05-17T14:51:33.377Z,210
2018-05-17T14:52:43.471Z,210
2018-05-17T14:53:53.563Z,210
2018-05-17T14:55:03.720Z,210
2018-05-17T14:56:13.826Z,210
2018-05-17T14:57:23.997Z,210
2018-05-17T14:58:34.091Z,210
2018-05-17T14:59:44.199Z,210
2018-05-17T15:00:54.333Z,210
2018-05-17T15:02:04.426Z,210
2018-05-17T15:03:14.521Z,205
2018-05-17T15:04:24.645Z,205
2018-05-17T15:05:34.739Z,205
2018-05-17T15:06:44.915Z,220
2018-05-17T15:07:55.024Z,210
2018-05-17T15:09:05.320Z,210
2018-05-17T15:10:15.404Z,205
2018-05-17T15:11:25.904Z,200
2018-05-17T15:12:36.135Z,205
2018-05-17T15:13:46.224Z,205
2018-05-17T15:14:56.322Z,200
2018-05-17T15:16:06.417Z,195
2018-05-17T15:17:16.227Z,200
2018-05-17T15:18:26.103Z,200
2018-05-17T15:19:35.660Z,195
2018-05-17T15:20:45.779Z,195
2018-05-17T15:21:55.877Z,195
2018-05-17T15:23:05.977Z,195
2018-05-17T15:24:16.059Z,200
2018-05-17T15:25:25.919Z,210
2018-05-17T15:26:36.015Z,205
2018-05-17T15:27:46.377Z,195
2018-05-17T15:28:55.939Z,200
2018-05-17T15:30:05.978Z,215
2018-05-17T15:31:15.824Z,225
2018-05-17T15:32:25.925Z,215
2018-05-17T15:33:35.766Z,195
2018-05-17T15:34:45.593Z,185
2018-05-17T15:35:55.163Z,180
2018-05-17T15:37:05.332Z,180
2018-05-17T15:38:15.420Z,170
2018-05-17T15:39:25.522Z,165
2018-05-17T15:40:35.698Z,165
2018-05-17T15:41:46.314Z,170
2018-05-17T15:42:56.515Z,170
2018-05-17T15:44:06.356Z,170
2018-05-17T15:45:16.439Z,170
2018-05-17T15:46:26.536Z,170
2018-05-17T15:47:36.634Z,170
2018-05-17T15:48:46.467Z,165
2018-05-17T15:49:56.552Z,165
2018-05-17T15:51:06.668Z,165
2018-05-17T15:52:16.510Z,170
2018-05-17T15:53:26.694Z,160
2018-05-17T15:54:36.822Z,150
2018-05-17T15:55:46.914Z,145
2018-05-17T15:56:57.020Z,145
2018-05-17T15:58:07.113Z,140
2018-05-17T15:59:16.942Z,140
2018-05-17T16:00:27.025Z,140
2018-05-17T16:01:37.114Z,135
2018-05-17T16:02:47.218Z,130
2018-05-17T16:03:57.084Z,125
2018-05-17T16:05:07.187Z,115
2018-05-17T16:06:17.281Z,115
2018-05-17T16:07:27.383Z,105
2018-05-17T16:08:37.587Z,105
2018-05-17T16:09:47.501Z,100
2018-05-17T16:10:57.580Z,90
2018-05-17T16:12:07.675Z,85
2018-05-17T16:13:17.516Z,80
2018-05-17T16:14:27.369Z,75
2018-05-17T16:15:38.376Z,70
2018-05-17T16:16:48.586Z,65
2018-05-17T16:17:58.683Z,60
2018-05-17T16:19:08.519Z,55
2018-05-17T16:20:18.636Z,50
2018-05-17T16:21:28.517Z,50
2018-05-17T16:22:38.088Z,45
2018-05-17T16:23:48.182Z,45
2018-05-17T16:24:58.262Z,40
2018-05-17T16:26:08.107Z,40
2018-05-17T16:27:18.344Z,40
2018-05-17T16:28:28.483Z,40
2018-05-17T16:29:38.589Z,40
2018-05-17T16:30:48.704Z,40
2018-05-17T16:31:58.845Z,40
2018-05-17T16:33:08.955Z,40
2018-05-17T16:34:19.279Z,40
2018-05-17T16:35:29.138Z,45
2018-05-17T16:36:39.246Z,45
2018-05-17T16:37:49.341Z,40
2018-05-17T16:38:59.234Z,40
2018-05-17T16:40:09.342Z,40
2018-05-17T16:41:19.166Z,40
2018-05-17T16:42:29.276Z,40
2018-05-17T16:43:39.129Z,40
2018-05-17T16:44:49.294Z,40
2018-05-17T16:45:59.421Z,40
2018-05-17T16:47:09.566Z,40
2018-05-17T16:48:19.942Z,40
2018-05-17T16:49:30.172Z,35
2018-05-17T16:50:40.352Z,35